Terminal Aerodrome Forecast
Issued by NWS Wichita, KS

Home | Current Version | Previous Version | Text Only | Print | Product List | Glossary On
Versions: 1 2 3 4 5 6 7 8 9 10 11 12 13 14 15 16 17
000
FTUS43 KICT 282320
TAFICT
TAF
KICT 282320Z 2900/2924 13009KT P6SM SKC
     FM290600 16012KT P6SM SCT100 SCT250
     FM291200 22009KT P6SM BKN100
     FM291500 34012G19KT P6SM SCT100 BKN200
     FM291700 35017G26KT P6SM BKN200=

USA.gov is the U.S. government's official web portal to all federal, state and local government web resources and services.